createdAt,value
2023-06-18T00:00:41.982Z,4.47
2023-06-18T00:03:08.651Z,4.75
2023-06-18T00:05:35.549Z,4.53
2023-06-18T00:08:02.334Z,4.88
2023-06-18T00:10:29.017Z,4.53
2023-06-18T00:12:55.560Z,3.83
2023-06-18T00:15:22.340Z,4.68
2023-06-18T00:17:49.005Z,4.50
2023-06-18T00:20:16.008Z,4.05
2023-06-18T00:22:43.066Z,4.10
2023-06-18T00:25:09.757Z,4.22
2023-06-18T00:27:36.516Z,3.95
2023-06-18T00:30:05.170Z,3.92
2023-06-18T00:32:32.375Z,4.18
2023-06-18T00:35:01.797Z,4.65
2023-06-18T00:37:29.183Z,4.20
2023-06-18T00:39:56.370Z,4.28
2023-06-18T00:42:23.128Z,4.90
2023-06-18T00:44:49.671Z,4.43
2023-06-18T00:47:18.733Z,4.25
2023-06-18T00:49:46.538Z,4.47
2023-06-18T00:52:14.092Z,4.70
2023-06-18T00:54:47.290Z,4.63
2023-06-18T00:57:16.353Z,4.65
2023-06-18T00:59:48.284Z,4.30
2023-06-18T01:02:16.446Z,4.70
2023-06-18T01:04:44.544Z,4.53
2023-06-18T01:07:14.808Z,4.40
2023-06-18T01:09:45.615Z,4.70
2023-06-18T01:12:12.631Z,4.65
2023-06-18T01:14:40.316Z,5.40
2023-06-18T01:17:08.177Z,4.70
2023-06-18T01:19:39.307Z,4.25
2023-06-18T01:22:17.203Z,4.82
2023-06-18T01:24:51.722Z,4.30
2023-06-18T01:27:22.558Z,4.35
2023-06-18T01:29:51.675Z,4.45
2023-06-18T01:32:20.789Z,4.65
2023-06-18T01:34:48.966Z,4.70
2023-06-18T01:37:41.902Z,4.72
2023-06-18T01:40:37.932Z,4.43
2023-06-18T01:43:18.065Z,4.07
2023-06-18T01:46:11.695Z,4.60
2023-06-18T01:49:04.602Z,5.22
2023-06-18T01:51:53.325Z,4.57
2023-06-18T01:54:41.675Z,4.05
2023-06-18T01:57:29.369Z,4.88
2023-06-18T02:00:16.192Z,4.80
2023-06-18T02:02:44.194Z,4.80
2023-06-18T02:05:11.336Z,4.65
2023-06-18T02:07:37.825Z,4.43
2023-06-18T02:10:04.937Z,4.65
2023-06-18T02:12:31.500Z,4.60
2023-06-18T02:14:58.891Z,4.95
2023-06-18T02:17:27.314Z,4.43
2023-06-18T02:19:54.154Z,4.68
2023-06-18T02:22:20.981Z,4.47
2023-06-18T02:24:47.698Z,4.55
2023-06-18T02:27:14.588Z,4.18
2023-06-18T02:29:42.806Z,4.70
2023-06-18T02:32:11.631Z,4.43
2023-06-18T02:34:38.821Z,4.32
2023-06-18T02:37:07.969Z,3.90
2023-06-18T02:39:36.986Z,4.88
2023-06-18T02:42:04.125Z,4.35
2023-06-18T02:44:32.657Z,4.63
2023-06-18T02:46:59.329Z,4.50
2023-06-18T02:49:26.123Z,4.95
2023-06-18T02:51:52.908Z,4.70
2023-06-18T02:54:19.512Z,4.78
2023-06-18T02:56:46.248Z,5.25
2023-06-18T02:59:12.832Z,4.40
2023-06-18T03:01:40.606Z,4.57
2023-06-18T03:04:07.649Z,4.22
2023-06-18T03:06:35.017Z,4.80
2023-06-18T03:09:03.377Z,4.40
2023-06-18T03:11:30.056Z,4.25
2023-06-18T03:13:58.178Z,4.88
2023-06-18T03:16:24.968Z,4.43
2023-06-18T03:18:51.755Z,4.20
2023-06-18T03:21:19.552Z,4.20
2023-06-18T03:23:47.200Z,4.75
2023-06-18T03:26:13.871Z,4.78
2023-06-18T03:28:40.787Z,4.25
2023-06-18T03:31:08.283Z,4.30
2023-06-18T03:33:34.983Z,4.70
2023-06-18T03:36:04.154Z,4.43
2023-06-18T03:38:33.835Z,4.82
2023-06-18T03:41:03.828Z,5.22
2023-06-18T03:43:31.098Z,4.70
2023-06-18T03:45:59.378Z,4.65
2023-06-18T03:48:26.211Z,4.35
2023-06-18T03:50:53.121Z,4.75
2023-06-18T03:53:19.618Z,4.35
2023-06-18T03:55:47.885Z,4.50
2023-06-18T03:58:19.009Z,3.97
2023-06-18T04:00:47.399Z,5.10
2023-06-18T04:03:14.520Z,4.43
2023-06-18T04:05:41.171Z,4.32
2023-06-18T04:08:08.412Z,5.25
2023-06-18T04:10:35.312Z,4.20
2023-06-18T04:13:03.201Z,5.00
2023-06-18T04:15:30.098Z,4.88
2023-06-18T04:17:57.781Z,4.43
2023-06-18T04:20:24.898Z,4.85
2023-06-18T04:22:51.705Z,5.13
2023-06-18T04:25:21.143Z,5.13
2023-06-18T04:27:49.641Z,4.70
2023-06-18T04:30:16.512Z,4.82
2023-06-18T04:32:43.312Z,4.40
2023-06-18T04:35:10.570Z,4.80
2023-06-18T04:37:37.755Z,5.20
2023-06-18T04:40:06.698Z,5.13
2023-06-18T04:42:34.243Z,4.65
2023-06-18T04:45:00.873Z,5.07
2023-06-18T04:47:27.755Z,5.15
2023-06-18T04:49:54.728Z,4.78
2023-06-18T04:52:21.342Z,4.68
2023-06-18T04:54:49.191Z,5.20
2023-06-18T04:57:17.320Z,4.70
2023-06-18T04:59:43.940Z,5.13
2023-06-18T05:02:11.187Z,5.00
2023-06-18T05:04:37.839Z,4.55
2023-06-18T05:07:04.646Z,5.20
2023-06-18T05:09:33.650Z,4.50
2023-06-18T05:12:00.434Z,4.97
2023-06-18T05:14:28.589Z,4.53
2023-06-18T05:16:55.524Z,4.72
2023-06-18T05:19:22.091Z,4.78
2023-06-18T05:21:48.837Z,4.93
2023-06-18T05:24:16.061Z,5.20
2023-06-18T05:26:43.694Z,4.78
2023-06-18T05:29:10.371Z,4.80
2023-06-18T05:31:37.368Z,4.70
2023-06-18T05:34:08.047Z,4.88
2023-06-18T05:36:34.590Z,5.43
2023-06-18T05:39:01.538Z,4.85
2023-06-18T05:41:30.051Z,4.93
2023-06-18T05:43:57.824Z,5.13
2023-06-18T05:46:24.357Z,4.45
2023-06-18T05:48:51.157Z,5.15
2023-06-18T05:51:19.443Z,4.45
2023-06-18T05:53:46.432Z,4.93
2023-06-18T05:56:14.709Z,4.43
2023-06-18T05:58:41.808Z,4.82
2023-06-18T06:01:08.406Z,4.70
2023-06-18T06:03:36.652Z,4.75
2023-06-18T06:06:03.813Z,4.50
2023-06-18T06:08:32.087Z,4.80
2023-06-18T06:11:01.232Z,4.97
2023-06-18T06:13:28.132Z,5.25
2023-06-18T06:15:58.843Z,5.03
2023-06-18T06:18:25.559Z,4.90
2023-06-18T06:20:52.080Z,5.05
2023-06-18T06:23:18.768Z,5.25
2023-06-18T06:25:45.646Z,5.00
2023-06-18T06:28:12.689Z,5.35
2023-06-18T06:30:39.558Z,5.80
2023-06-18T06:33:07.641Z,5.47
2023-06-18T06:35:34.663Z,5.63
2023-06-18T06:38:01.276Z,5.47
2023-06-18T06:40:28.195Z,5.15
2023-06-18T06:42:55.297Z,5.22
2023-06-18T06:45:31.216Z,5.65
2023-06-18T06:48:04.484Z,5.28
2023-06-18T06:50:54.003Z,5.07
2023-06-18T06:53:24.399Z,5.40
2023-06-18T06:55:51.622Z,5.57
2023-06-18T06:58:21.285Z,5.80
2023-06-18T07:00:48.012Z,5.07
2023-06-18T07:03:14.897Z,4.63
2023-06-18T07:05:41.770Z,4.75
2023-06-18T07:08:08.565Z,5.63
2023-06-18T07:10:36.008Z,5.07
2023-06-18T07:13:02.627Z,5.63
2023-06-18T07:15:29.373Z,6.40
2023-06-18T07:17:56.022Z,6.10
2023-06-18T07:20:23.098Z,5.55
2023-06-18T07:22:49.824Z,6.25
2023-06-18T07:25:16.737Z,6.47
2023-06-18T07:27:43.264Z,6.20
2023-06-18T07:30:10.652Z,6.45
2023-06-18T07:32:37.278Z,6.75
2023-06-18T07:35:04.165Z,6.65
2023-06-18T07:37:30.850Z,6.50
2023-06-18T07:39:57.637Z,7.25
2023-06-18T07:42:24.605Z,7.15
2023-06-18T07:44:52.845Z,7.15
2023-06-18T07:47:19.942Z,6.60
2023-06-18T07:49:46.514Z,6.20
2023-06-18T07:52:13.222Z,6.88
2023-06-18T07:54:39.889Z,6.07
2023-06-18T07:57:06.708Z,6.30
2023-06-18T07:59:33.236Z,5.88
2023-06-18T08:02:00.202Z,6.30
2023-06-18T08:04:26.884Z,5.78
2023-06-18T08:06:53.643Z,7.75
2023-06-18T08:09:20.161Z,6.32
2023-06-18T08:11:46.817Z,6.82
2023-06-18T08:14:13.343Z,6.55
2023-06-18T08:16:40.480Z,6.78
2023-06-18T08:19:07.303Z,6.20
2023-06-18T08:21:33.895Z,6.60
2023-06-18T08:24:00.605Z,6.47
2023-06-18T08:26:27.213Z,6.30
2023-06-18T08:28:53.990Z,6.13
2023-06-18T08:31:21.755Z,6.75
2023-06-18T08:33:50.043Z,6.50
2023-06-18T08:36:22.118Z,6.18
2023-06-18T08:38:49.261Z,6.68
2023-06-18T08:41:16.176Z,6.22
2023-06-18T08:43:42.933Z,6.18
2023-06-18T08:46:11.607Z,6.18
2023-06-18T08:48:44.231Z,6.25
2023-06-18T08:51:12.607Z,6.65
2023-06-18T08:53:42.171Z,6.07
2023-06-18T08:56:10.030Z,5.90
2023-06-18T08:58:51.027Z,5.00
2023-06-18T09:03:45.986Z,5.75
2023-06-18T09:06:13.764Z,5.75
2023-06-18T09:08:40.665Z,5.57
2023-06-18T09:11:08.075Z,5.90
2023-06-18T09:13:41.017Z,5.28
2023-06-18T09:16:08.516Z,5.20
2023-06-18T09:18:35.131Z,5.18
2023-06-18T09:21:04.366Z,5.70
2023-06-18T09:23:31.849Z,5.53
2023-06-18T09:25:59.130Z,5.70
2023-06-18T09:28:27.672Z,5.20
2023-06-18T09:31:00.194Z,5.50
2023-06-18T09:33:36.982Z,5.80
2023-06-18T09:36:08.613Z,5.55
2023-06-18T09:38:42.800Z,4.93
2023-06-18T09:41:13.768Z,5.68
2023-06-18T09:43:42.319Z,4.93
2023-06-18T09:46:09.467Z,5.25
2023-06-18T09:48:39.515Z,4.93
2023-06-18T09:51:06.408Z,5.32
2023-06-18T09:53:35.114Z,5.15
2023-06-18T09:56:16.410Z,4.65
2023-06-18T09:58:50.398Z,5.68
2023-06-18T10:01:18.694Z,4.50
2023-06-18T10:03:46.182Z,4.57
2023-06-18T10:06:19.097Z,4.32
2023-06-18T10:08:51.639Z,4.50
2023-06-18T10:11:19.960Z,4.30
2023-06-18T10:13:59.213Z,4.25
2023-06-18T10:16:27.865Z,3.70
2023-06-18T10:19:09.808Z,3.58
2023-06-18T10:21:40.065Z,3.90
2023-06-18T10:24:13.574Z,4.00
2023-06-18T10:26:42.295Z,4.20
2023-06-18T10:29:11.310Z,3.42
2023-06-18T10:31:38.690Z,3.92
2023-06-18T10:34:05.944Z,3.80
2023-06-18T10:36:33.869Z,3.53
2023-06-18T10:39:02.250Z,3.47
2023-06-18T10:41:28.749Z,3.42
2023-06-18T10:43:56.319Z,3.83
2023-06-18T10:46:23.779Z,3.72
2023-06-18T10:49:14.859Z,3.65
2023-06-18T10:51:43.105Z,3.47
2023-06-18T10:54:24.190Z,4.13
2023-06-18T10:56:53.840Z,3.35
2023-06-18T10:59:36.882Z,3.63
2023-06-18T11:02:03.939Z,3.63
2023-06-18T11:04:32.501Z,3.65
2023-06-18T11:07:24.502Z,3.60
2023-06-18T11:09:59.586Z,3.45
2023-06-18T11:12:30.802Z,3.33
2023-06-18T11:15:07.841Z,3.90
2023-06-18T11:17:34.807Z,3.20
2023-06-18T11:20:02.826Z,3.53
2023-06-18T11:22:29.540Z,3.70
2023-06-18T11:25:01.289Z,3.25
2023-06-18T11:27:28.703Z,3.22
2023-06-18T11:29:59.693Z,3.33
2023-06-18T11:32:27.107Z,4.20
2023-06-18T11:34:57.549Z,3.58
2023-06-18T11:37:29.071Z,3.22
2023-06-18T11:39:57.292Z,3.30
2023-06-18T11:42:27.117Z,3.45
2023-06-18T11:47:25.716Z,3.38
2023-06-18T11:49:52.884Z,3.53
2023-06-18T11:52:22.617Z,3.05
2023-06-18T11:57:19.890Z,3.97
2023-06-18T11:59:50.968Z,3.45
2023-06-18T12:02:19.355Z,3.22
2023-06-18T12:04:46.614Z,3.60
2023-06-18T12:07:18.049Z,3.53
2023-06-18T12:09:45.751Z,3.45
2023-06-18T12:12:15.388Z,3.42
2023-06-18T12:17:30.752Z,3.20
2023-06-18T12:20:05.385Z,3.78
2023-06-18T12:22:32.380Z,3.45
2023-06-18T12:24:59.104Z,3.40
2023-06-18T12:27:26.532Z,3.08
2023-06-18T12:29:58.598Z,3.22
2023-06-18T12:32:25.217Z,3.22
2023-06-18T12:34:51.943Z,3.17
2023-06-18T12:37:18.426Z,2.80
2023-06-18T12:40:20.948Z,3.30
2023-06-18T12:42:48.254Z,3.08
2023-06-18T12:45:16.742Z,2.92
2023-06-18T12:47:47.435Z,3.42
2023-06-18T12:50:26.060Z,3.15
2023-06-18T12:52:53.878Z,2.75
2023-06-18T12:55:22.929Z,2.75
2023-06-18T13:00:18.802Z,2.78
2023-06-18T13:02:47.191Z,2.78
2023-06-18T13:05:14.367Z,2.95
2023-06-18T13:07:49.990Z,3.05
2023-06-18T13:10:16.480Z,2.80
2023-06-18T13:12:43.282Z,3.10
2023-06-18T13:15:10.675Z,3.38
2023-06-18T13:17:37.993Z,2.83
2023-06-18T13:20:06.254Z,3.03
2023-06-18T13:22:32.776Z,3.03
2023-06-18T13:25:00.006Z,2.70
2023-06-18T13:27:27.661Z,2.90
2023-06-18T13:29:54.403Z,3.00
2023-06-18T13:32:21.409Z,3.08
2023-06-18T13:34:49.892Z,2.80
2023-06-18T13:37:17.197Z,3.17
2023-06-18T13:39:47.209Z,2.72
2023-06-18T13:42:15.451Z,2.50
2023-06-18T13:44:42.799Z,2.85
2023-06-18T13:47:09.936Z,2.83
2023-06-18T13:49:36.511Z,2.78
2023-06-18T13:52:05.268Z,2.70
2023-06-18T13:54:32.115Z,2.80
2023-06-18T13:56:58.817Z,2.88
2023-06-18T13:59:25.640Z,2.53
2023-06-18T14:01:52.074Z,3.00
2023-06-18T14:04:19.590Z,2.70
2023-06-18T14:06:46.549Z,2.50
2023-06-18T14:09:16.864Z,2.80
2023-06-18T14:11:45.480Z,2.88
2023-06-18T14:14:12.078Z,3.08
2023-06-18T14:16:38.935Z,2.60
2023-06-18T14:19:05.549Z,2.83
2023-06-18T14:21:32.179Z,2.95
2023-06-18T14:24:03.988Z,3.03
2023-06-18T14:26:31.407Z,3.10
2023-06-18T14:28:58.102Z,2.53
2023-06-18T14:31:24.744Z,2.50
2023-06-18T14:34:07.897Z,2.63
2023-06-18T14:36:38.560Z,2.70
2023-06-18T14:39:06.904Z,2.83
2023-06-18T14:41:33.465Z,2.75
2023-06-18T14:44:00.404Z,2.47
2023-06-18T14:46:27.246Z,2.75
2023-06-18T14:48:53.769Z,2.83
2023-06-18T14:51:20.729Z,2.55
2023-06-18T14:53:51.960Z,3.17
2023-06-18T14:56:19.658Z,2.90
2023-06-18T14:58:46.445Z,2.70
2023-06-18T15:01:13.017Z,2.40
2023-06-18T15:03:39.807Z,2.63
2023-06-18T15:06:08.976Z,2.80
2023-06-18T15:08:35.737Z,3.28
2023-06-18T15:11:02.400Z,2.67
2023-06-18T15:13:31.793Z,2.90
2023-06-18T15:16:01.287Z,2.88
2023-06-18T15:18:27.909Z,2.40
2023-06-18T15:20:54.759Z,2.80
2023-06-18T15:23:24.613Z,2.47
2023-06-18T15:25:51.078Z,2.47
2023-06-18T15:28:17.891Z,2.40
2023-06-18T15:30:44.410Z,2.50
2023-06-18T15:33:11.121Z,2.78
2023-06-18T15:35:37.676Z,2.90
2023-06-18T15:38:09.941Z,2.80
2023-06-18T15:40:37.577Z,3.05
2023-06-18T15:43:04.155Z,2.58
2023-06-18T15:45:30.827Z,2.70
2023-06-18T15:47:57.468Z,2.80
2023-06-18T15:50:23.995Z,2.70
2023-06-18T15:52:51.718Z,3.00
